createdAt,value
2017-05-01T00:00:47.383Z,5.07
2017-05-01T00:02:09.398Z,5.05
2017-05-01T00:03:32.244Z,5.02
2017-05-01T00:04:54.038Z,4.96
2017-05-01T00:07:47.376Z,4.87
2017-05-01T00:09:09.281Z,4.85
2017-05-01T00:10:31.110Z,4.83
2017-05-01T00:12:06.065Z,4.8
2017-05-01T00:13:37.958Z,4.77
2017-05-01T00:15:03.156Z,4.76
2017-05-01T00:16:25.068Z,4.75
2017-05-01T00:17:46.808Z,4.76
2017-05-01T00:19:08.612Z,4.76
2017-05-01T00:20:30.447Z,4.75
2017-05-01T00:21:54.926Z,4.76
2017-05-01T00:23:17.083Z,4.79
2017-05-01T00:24:39.993Z,4.83
2017-05-01T00:26:01.845Z,4.86
2017-05-01T00:27:25.139Z,4.84
2017-05-01T00:28:47.439Z,4.8
2017-05-01T00:30:09.254Z,4.76
2017-05-01T00:31:31.138Z,4.73
2017-05-01T00:32:53.558Z,4.7
2017-05-01T00:34:15.546Z,4.7
2017-05-01T00:35:37.759Z,4.7
2017-05-01T00:36:59.840Z,4.69
2017-05-01T00:38:22.610Z,4.65
2017-05-01T00:39:44.374Z,4.62
2017-05-01T00:41:06.136Z,4.59
2017-05-01T00:42:28.058Z,4.56
2017-05-01T00:43:59.641Z,4.54
2017-05-01T00:45:21.355Z,4.52
2017-05-01T00:46:44.300Z,4.5
2017-05-01T00:48:06.252Z,4.46
2017-05-01T00:49:27.972Z,4.42
2017-05-01T00:50:49.861Z,4.37
2017-05-01T00:52:11.774Z,4.35
2017-05-01T00:53:34.611Z,4.32
2017-05-01T00:54:57.401Z,4.28
2017-05-01T00:56:19.136Z,4.26
2017-05-01T00:57:40.879Z,4.23
2017-05-01T00:59:02.699Z,4.21
2017-05-01T01:00:25.497Z,4.17
2017-05-01T01:01:47.332Z,4.14
2017-05-01T01:03:09.185Z,4.15
2017-05-01T01:04:30.967Z,4.13
2017-05-01T01:05:52.777Z,4.11
2017-05-01T01:07:14.659Z,4.09
2017-05-01T01:08:36.744Z,4.05
2017-05-01T01:10:00.013Z,4.01
2017-05-01T01:11:21.943Z,3.94
2017-05-01T01:12:43.709Z,3.88
2017-05-01T01:14:05.560Z,3.83
2017-05-01T01:15:27.457Z,3.77
2017-05-01T01:16:50.229Z,3.69
2017-05-01T01:18:13.019Z,3.62
2017-05-01T01:19:34.901Z,3.55
2017-05-01T01:20:56.769Z,3.49
2017-05-01T01:22:18.653Z,3.44
2017-05-01T01:23:40.403Z,3.4
2017-05-01T01:25:02.228Z,3.38
2017-05-01T01:26:24.006Z,3.35
2017-05-01T01:27:45.754Z,3.33
2017-05-01T01:29:07.531Z,3.31
2017-05-01T01:30:29.307Z,3.3
2017-05-01T01:31:51.274Z,3.29
2017-05-01T01:33:13.015Z,3.27
2017-05-01T01:34:35.862Z,3.29
2017-05-01T01:35:57.608Z,3.32
2017-05-01T01:37:19.465Z,3.34
2017-05-01T01:38:41.214Z,3.35
2017-05-01T01:40:02.985Z,3.36
2017-05-01T01:41:24.746Z,3.38
2017-05-01T01:42:47.020Z,3.4
2017-05-01T01:44:09.257Z,3.42
2017-05-01T01:45:31.289Z,3.42
2017-05-01T01:46:53.134Z,3.41
2017-05-01T01:48:15.026Z,3.38
2017-05-01T01:49:36.868Z,3.38
2017-05-01T01:50:58.745Z,3.39
2017-05-01T01:52:21.522Z,3.43
2017-05-01T01:53:43.388Z,3.47
2017-05-01T01:55:05.222Z,3.5
2017-05-01T01:56:27.188Z,3.5
2017-05-01T01:57:49.046Z,3.5
2017-05-01T01:59:10.859Z,3.5
2017-05-01T02:00:32.745Z,3.51
2017-05-01T02:01:54.658Z,3.47
2017-05-01T02:03:16.456Z,3.45
2017-05-01T02:04:38.335Z,3.42
2017-05-01T02:06:00.188Z,3.4
2017-05-01T02:07:21.926Z,3.38
2017-05-01T02:08:43.625Z,3.35
2017-05-01T02:10:06.412Z,3.33
2017-05-01T02:11:28.163Z,3.35
2017-05-01T02:12:49.944Z,3.36
2017-05-01T02:14:12.693Z,3.38
2017-05-01T02:15:34.478Z,3.42
2017-05-01T02:16:56.645Z,3.49
2017-05-01T02:18:18.924Z,3.57
2017-05-01T02:19:41.045Z,3.62
2017-05-01T02:21:03.447Z,3.66
2017-05-01T02:22:25.249Z,3.66
2017-05-01T02:23:46.996Z,3.61
2017-05-01T02:25:08.825Z,3.56
2017-05-01T02:26:30.601Z,3.53
2017-05-01T02:27:52.420Z,3.48
2017-05-01T02:29:14.207Z,3.43
2017-05-01T02:30:37.119Z,3.39
2017-05-01T02:31:58.914Z,3.33
2017-05-01T02:33:20.810Z,3.26
2017-05-01T02:34:42.587Z,3.2
2017-05-01T02:36:04.317Z,3.12
2017-05-01T02:37:26.196Z,3.06
2017-05-01T02:38:49.026Z,3
2017-05-01T02:40:10.846Z,2.95
2017-05-01T02:41:32.733Z,2.9
2017-05-01T02:42:54.491Z,2.87
2017-05-01T02:44:16.253Z,2.85
2017-05-01T02:45:38.003Z,2.85
2017-05-01T02:46:59.730Z,2.83
2017-05-01T02:48:21.627Z,2.81
2017-05-01T02:49:43.386Z,2.78
2017-05-01T02:51:05.485Z,2.75
2017-05-01T02:52:27.535Z,2.72
2017-05-01T02:53:49.873Z,2.74
2017-05-01T02:55:11.697Z,2.81
2017-05-01T02:56:33.621Z,2.91
2017-05-01T02:57:55.408Z,2.96
2017-05-01T02:59:17.250Z,2.92
2017-05-01T03:00:39.014Z,2.87
2017-05-01T03:02:00.830Z,2.79
2017-05-01T03:03:22.589Z,2.74
2017-05-01T03:04:44.588Z,2.69
2017-05-01T03:06:07.423Z,2.66
2017-05-01T03:07:29.197Z,2.63
2017-05-01T03:08:52.072Z,2.6
2017-05-01T03:10:14.015Z,2.61
2017-05-01T03:11:35.837Z,2.61
2017-05-01T03:12:57.603Z,2.61
2017-05-01T03:14:19.391Z,2.6
2017-05-01T03:15:41.194Z,2.58
2017-05-01T03:17:02.984Z,2.58
2017-05-01T03:18:24.763Z,2.59
2017-05-01T03:19:46.634Z,2.61
2017-05-01T03:21:08.489Z,2.65
2017-05-01T03:22:30.260Z,2.68
2017-05-01T03:23:52.024Z,2.66
2017-05-01T03:25:13.947Z,2.61
2017-05-01T03:26:36.133Z,2.54
2017-05-01T03:27:58.170Z,2.5
2017-05-01T03:29:20.102Z,2.46
2017-05-01T03:30:41.894Z,2.44
2017-05-01T03:32:03.730Z,2.42
2017-05-01T03:33:26.542Z,2.37
2017-05-01T03:34:48.304Z,2.3
2017-05-01T03:36:10.173Z,2.26
2017-05-01T03:37:32.015Z,2.24
2017-05-01T03:38:53.894Z,2.22
2017-05-01T03:40:15.649Z,2.17
2017-05-01T03:41:37.397Z,2.13
2017-05-01T03:42:59.322Z,2.09
2017-05-01T03:44:21.112Z,2.09
2017-05-01T03:45:43.938Z,2.07
2017-05-01T03:47:05.768Z,2.07
2017-05-01T03:48:27.639Z,2.07
2017-05-01T03:49:49.425Z,2.09
2017-05-01T03:51:11.336Z,2.14
2017-05-01T03:52:33.080Z,2.16
2017-05-01T03:53:54.945Z,2.17
2017-05-01T03:55:16.703Z,2.16
2017-05-01T03:56:38.494Z,2.13
2017-05-01T03:58:00.244Z,2.13
2017-05-01T03:59:22.139Z,2.12
2017-05-01T04:00:46.122Z,2.09
2017-05-01T04:02:08.207Z,2.08
2017-05-01T04:03:31.223Z,2.09
2017-05-01T04:04:53.023Z,2.1
2017-05-01T04:06:14.855Z,2.11
2017-05-01T04:07:36.660Z,2.12
2017-05-01T04:08:58.389Z,2.15
2017-05-01T04:10:20.299Z,2.17
2017-05-01T04:11:42.101Z,2.19
2017-05-01T04:13:03.930Z,2.23
2017-05-01T04:14:36.445Z,2.27
2017-05-01T04:15:58.295Z,2.34
2017-05-01T04:17:20.010Z,2.38
2017-05-01T04:18:41.844Z,2.4
2017-05-01T04:20:03.585Z,2.43
2017-05-01T04:21:25.435Z,2.44
2017-05-01T04:22:47.299Z,2.44
2017-05-01T04:24:09.228Z,2.45
2017-05-01T04:25:31.013Z,2.47
2017-05-01T04:26:52.829Z,2.5
2017-05-01T04:28:14.705Z,2.51
2017-05-01T04:29:36.487Z,2.52
2017-05-01T04:30:58.377Z,2.53
2017-05-01T04:32:20.195Z,2.54
2017-05-01T04:33:42.027Z,2.54
2017-05-01T04:35:03.853Z,2.55
2017-05-01T04:36:25.975Z,2.55
2017-05-01T04:37:48.125Z,2.56
2017-05-01T04:39:10.134Z,2.56
2017-05-01T04:40:31.890Z,2.58
2017-05-01T04:41:53.700Z,2.6
2017-05-01T04:43:15.605Z,2.61
2017-05-01T04:44:37.413Z,2.63
2017-05-01T04:45:59.153Z,2.66
2017-05-01T04:47:20.918Z,2.69
2017-05-01T04:48:43.424Z,2.76
2017-05-01T04:50:05.193Z,2.81
2017-05-01T04:51:27.111Z,2.86
2017-05-01T04:52:48.893Z,2.9
2017-05-01T04:54:10.784Z,2.96
2017-05-01T04:55:32.598Z,3.03
2017-05-01T04:56:55.420Z,3.13
2017-05-01T04:58:17.293Z,3.25
2017-05-01T04:59:39.077Z,3.38
2017-05-01T05:01:00.882Z,3.58
2017-05-01T05:02:22.673Z,3.8
2017-05-01T05:03:44.536Z,3.99
2017-05-01T05:05:06.357Z,4.18
2017-05-01T05:06:28.187Z,4.36
2017-05-01T05:07:52.053Z,4.56
2017-05-01T05:09:13.929Z,4.81
2017-05-01T05:10:36.012Z,5.04
2017-05-01T05:11:58.024Z,5.27
2017-05-01T05:13:20.030Z,5.5
2017-05-01T05:14:42.163Z,5.76
2017-05-01T05:16:03.928Z,6.01
2017-05-01T05:17:25.665Z,6.26
2017-05-01T05:18:57.313Z,6.51
2017-05-01T05:20:19.147Z,6.78
2017-05-01T05:21:41.013Z,7.01
2017-05-01T05:23:02.785Z,7.22
2017-05-01T05:24:24.579Z,7.39
2017-05-01T05:25:46.417Z,7.56
2017-05-01T05:27:08.298Z,7.75
2017-05-01T05:28:30.267Z,7.95
2017-05-01T05:29:52.061Z,8.13
2017-05-01T05:31:13.848Z,8.33
2017-05-01T05:32:35.701Z,8.49
2017-05-01T05:33:57.538Z,8.62
2017-05-01T05:35:19.350Z,8.68
2017-05-01T05:36:42.600Z,8.72
2017-05-01T05:38:05.724Z,8.73
2017-05-01T05:39:27.884Z,8.78
2017-05-01T05:40:50.233Z,8.9
2017-05-01T05:42:12.343Z,9.04
2017-05-01T05:43:34.120Z,9.22
2017-05-01T05:45:06.379Z,9.41
2017-05-01T05:46:29.339Z,9.61
2017-05-01T05:47:51.638Z,9.73
2017-05-01T05:49:13.722Z,9.84
2017-05-01T05:50:35.740Z,9.96
2017-05-01T05:51:57.777Z,10.05
2017-05-01T05:53:19.585Z,10.14
2017-05-01T05:54:41.432Z,10.25
2017-05-01T05:56:03.339Z,10.41
2017-05-01T05:57:25.226Z,10.58
2017-05-01T05:58:46.996Z,10.81
2017-05-01T06:00:09.891Z,11.04
2017-05-01T06:01:31.649Z,11.3
2017-05-01T06:02:53.550Z,11.52
2017-05-01T06:04:15.325Z,11.73
2017-05-01T06:05:37.129Z,11.88
2017-05-01T06:06:58.902Z,11.99
2017-05-01T06:08:20.698Z,12.06
2017-05-01T06:09:42.521Z,12.07
2017-05-01T06:11:04.386Z,12.08
2017-05-01T06:12:26.247Z,12.09
2017-05-01T06:13:48.499Z,12.14
2017-05-01T06:15:10.367Z,12.22
2017-05-01T06:16:33.276Z,12.3
2017-05-01T06:17:55.158Z,12.36
2017-05-01T06:19:17.011Z,12.42
2017-05-01T06:20:38.809Z,12.51
2017-05-01T06:22:01.397Z,12.64
2017-05-01T06:23:23.584Z,12.83
2017-05-01T06:24:52.527Z,13.05
2017-05-01T06:26:18.366Z,13.34
2017-05-01T06:27:42.412Z,13.64
2017-05-01T06:29:08.168Z,13.99
2017-05-01T06:30:31.572Z,14.36
2017-05-01T06:31:54.213Z,14.72
2017-05-01T06:33:19.445Z,15.04
2017-05-01T06:34:41.254Z,15.33
2017-05-01T06:36:08.549Z,15.58
2017-05-01T06:37:55.280Z,15.87
2017-05-01T06:39:17.191Z,16.13
2017-05-01T06:40:39.049Z,16.34
2017-05-01T06:42:00.913Z,16.53
2017-05-01T06:43:22.812Z,16.72
2017-05-01T06:44:51.211Z,16.95
2017-05-01T06:46:15.629Z,17.18
2017-05-01T06:47:47.866Z,17.34
2017-05-01T06:49:09.719Z,17.48
2017-05-01T06:50:31.620Z,17.57
2017-05-01T06:51:53.409Z,17.7
2017-05-01T06:53:15.329Z,17.82
2017-05-01T06:54:37.944Z,17.98
2017-05-01T06:55:59.896Z,18.12
2017-05-01T06:57:21.839Z,18.26
2017-05-01T06:58:43.864Z,18.34
2017-05-01T07:00:06.132Z,18.44
2017-05-01T07:01:28.235Z,18.52
2017-05-01T07:02:54.177Z,18.62
2017-05-01T07:04:16.019Z,18.71
2017-05-01T07:05:38.033Z,18.82
2017-05-01T07:06:59.929Z,18.88
2017-05-01T07:08:22.116Z,18.96
2017-05-01T07:09:43.946Z,19.03
2017-05-01T07:11:05.703Z,19.08
2017-05-01T07:12:27.575Z,19.12
2017-05-01T07:13:49.459Z,19.17
2017-05-01T07:15:11.325Z,19.21
2017-05-01T07:16:33.176Z,19.25
2017-05-01T07:17:55.059Z,19.3
2017-05-01T07:19:16.981Z,19.33
2017-05-01T07:20:38.727Z,19.36
2017-05-01T07:22:00.567Z,19.4
2017-05-01T07:23:22.573Z,19.41
2017-05-01T07:24:44.742Z,19.39
2017-05-01T07:26:06.919Z,19.39
2017-05-01T07:27:28.963Z,19.42
2017-05-01T07:28:52.040Z,19.46
2017-05-01T07:30:13.937Z,19.5
2017-05-01T07:31:35.904Z,19.55
2017-05-01T07:32:58.127Z,19.6
2017-05-01T07:34:21.088Z,19.61
2017-05-01T07:35:43.307Z,19.58
2017-05-01T07:37:05.518Z,19.56
2017-05-01T07:38:27.686Z,19.54
2017-05-01T07:39:49.698Z,19.53
2017-05-01T07:41:11.546Z,19.49
2017-05-01T07:42:36.362Z,19.45
2017-05-01T07:43:58.251Z,19.41
2017-05-01T07:45:20.733Z,19.41
2017-05-01T07:46:42.533Z,19.43
2017-05-01T07:48:04.486Z,19.46
2017-05-01T07:49:26.497Z,19.48
2017-05-01T07:50:48.588Z,19.49
2017-05-01T07:52:10.392Z,19.52
2017-05-01T07:53:32.231Z,19.52
2017-05-01T07:54:54.063Z,19.55
2017-05-01T07:56:15.953Z,19.59
2017-05-01T07:57:37.885Z,19.63
2017-05-01T07:59:00.797Z,19.65
2017-05-01T08:00:22.647Z,19.68
2017-05-01T08:01:44.477Z,19.69
2017-05-01T08:03:06.274Z,19.66
2017-05-01T08:04:28.145Z,19.62
2017-05-01T08:05:50.052Z,19.58
2017-05-01T08:07:11.848Z,19.55
2017-05-01T08:08:33.764Z,19.49
2017-05-01T08:09:55.849Z,19.41
2017-05-01T08:11:18.133Z,19.33
2017-05-01T08:12:40.114Z,19.27
2017-05-01T08:14:02.022Z,19.25
2017-05-01T08:15:23.883Z,19.26
2017-05-01T08:16:45.737Z,19.34
2017-05-01T08:18:07.683Z,19.49
2017-05-01T08:19:29.567Z,19.67
2017-05-01T08:20:51.483Z,19.79
2017-05-01T08:22:13.325Z,19.83
2017-05-01T08:34:59.991Z,19.88
2017-05-01T08:36:21.922Z,19.78
2017-05-01T08:37:43.695Z,19.67
2017-05-01T08:39:05.556Z,19.63
2017-05-01T08:40:27.404Z,19.55
2017-05-01T08:41:49.303Z,19.53
2017-05-01T08:43:16.547Z,19.54
2017-05-01T08:44:47.986Z,19.63
2017-05-01T08:49:41.559Z,19.94
2017-05-01T08:51:03.436Z,19.94
2017-05-01T08:52:25.299Z,19.98
2017-05-01T08:53:51.509Z,19.96
2017-05-01T08:55:18.731Z,20.08
2017-05-01T08:56:42.338Z,20.13
2017-05-01T08:58:07.889Z,20.1
2017-05-01T08:59:29.796Z,20.02
2017-05-01T09:00:51.604Z,20.01
2017-05-01T09:02:13.466Z,19.96
2017-05-01T09:03:35.264Z,19.89
2017-05-01T09:04:57.141Z,19.78
2017-05-01T09:06:18.955Z,19.67
2017-05-01T09:07:40.781Z,19.6
2017-05-01T09:09:02.569Z,19.59
2017-05-01T09:33:30.319Z,26.78
2017-05-01T09:34:52.219Z,26.41
2017-05-01T09:36:38.355Z,25.85
2017-05-01T09:38:34.094Z,25.02
2017-05-01T09:40:09.962Z,23.82
2017-05-01T09:41:37.798Z,23.17
2017-05-01T09:43:29.019Z,22.59
2017-05-01T09:45:18.281Z,22.15
2017-05-01T09:46:50.586Z,22.09
2017-05-01T09:48:12.450Z,22.01
2017-05-01T09:49:34.295Z,21.79
2017-05-01T09:50:56.041Z,21.59
2017-05-01T09:52:17.872Z,21.59
2017-05-01T09:53:39.698Z,21.96
2017-05-01T09:55:01.575Z,22.35
2017-05-01T09:56:23.482Z,22.6
2017-05-01T09:57:45.254Z,23.03
2017-05-01T09:59:07.032Z,23.75
2017-05-01T10:00:28.992Z,24.62
2017-05-01T10:12:09.828Z,22.92
2017-05-01T10:13:33.577Z,22.89
2017-05-01T10:14:55.358Z,22.71
2017-05-01T10:16:17.283Z,22.38
2017-05-01T10:17:55.323Z,22.41
2017-05-01T10:19:29.653Z,23.44
2017-05-01T10:20:51.416Z,24.39
2017-05-01T10:22:13.292Z,25.16
2017-05-01T10:23:35.129Z,25.12
2017-05-01T10:24:56.989Z,25.27
2017-05-01T10:26:18.759Z,25.23
2017-05-01T10:27:40.599Z,25.07
2017-05-01T10:29:02.395Z,25.24
2017-05-01T10:30:24.136Z,25.98
2017-05-01T10:31:45.896Z,26.95
2017-05-01T10:33:07.729Z,27.42
2017-05-01T10:34:39.371Z,27.36
2017-05-01T10:36:01.157Z,26.55
2017-05-01T10:37:22.992Z,26.26
2017-05-01T10:38:44.884Z,26.83
2017-05-01T10:40:07.013Z,27.86
2017-05-01T10:41:28.849Z,29.58
2017-05-01T10:42:50.672Z,29.31
2017-05-01T10:44:12.428Z,29.16
2017-05-01T10:45:34.362Z,28.98
2017-05-01T10:46:56.218Z,29.52
2017-05-01T10:48:18.042Z,29.75
2017-05-01T10:49:39.850Z,29.93
2017-05-01T10:51:01.687Z,29.17
2017-05-01T10:52:23.448Z,28.28
2017-05-01T10:53:45.321Z,28.16
2017-05-01T10:55:07.162Z,27.91
2017-05-01T10:56:29.071Z,27.99
2017-05-01T10:57:50.996Z,28.37
2017-05-01T10:59:12.904Z,28.77
2017-05-01T11:00:34.739Z,28.78
2017-05-01T11:01:56.746Z,28.67
2017-05-01T11:03:18.623Z,29.85
2017-05-01T11:04:40.449Z,28.11
2017-05-01T11:06:02.425Z,26.46
2017-05-01T11:07:24.412Z,25.35
2017-05-01T11:08:46.358Z,24.67
2017-05-01T11:10:09.060Z,23.8
2017-05-01T11:11:31.136Z,22.74
2017-05-01T11:12:53.093Z,21.7
2017-05-01T11:14:14.899Z,20.82
2017-05-01T11:15:36.809Z,20.26
2017-05-01T11:16:58.601Z,19.97
2017-05-01T11:18:20.454Z,19.68
2017-05-01T11:19:42.461Z,19.29
2017-05-01T11:21:04.334Z,18.83
2017-05-01T11:22:26.133Z,18.31
2017-05-01T11:23:49.070Z,17.83
2017-05-01T11:25:11.049Z,17.35
2017-05-01T11:26:32.839Z,16.93
2017-05-01T11:27:54.702Z,16.54
2017-05-01T11:29:16.531Z,16.16
2017-05-01T11:30:38.298Z,15.83
2017-05-01T11:32:00.139Z,15.54
2017-05-01T11:33:21.920Z,15.31
2017-05-01T11:34:43.756Z,15.12
2017-05-01T11:36:05.518Z,15
2017-05-01T11:37:27.306Z,14.87
2017-05-01T11:38:58.896Z,14.74
2017-05-01T11:40:20.692Z,14.66
2017-05-01T11:41:42.454Z,14.64
2017-05-01T11:43:04.322Z,14.63
2017-05-01T11:44:26.129Z,14.59
2017-05-01T11:45:47.987Z,14.58
2017-05-01T11:47:09.906Z,14.6
2017-05-01T11:48:31.879Z,14.68
2017-05-01T11:49:53.799Z,14.84
2017-05-01T11:51:15.657Z,14.97
2017-05-01T11:52:37.467Z,15.03
2017-05-01T11:53:59.343Z,15.03
2017-05-01T11:55:21.339Z,15
2017-05-01T11:56:43.167Z,14.95
2017-05-01T11:58:05.020Z,14.84
2017-05-01T11:59:26.923Z,14.78
2017-05-01T12:00:48.755Z,14.7
2017-05-01T12:02:10.761Z,14.63
2017-05-01T12:03:32.724Z,14.63
2017-05-01T12:04:54.534Z,14.66
2017-05-01T12:06:16.317Z,14.66
2017-05-01T12:07:38.339Z,14.62
2017-05-01T12:09:09.975Z,14.6
2017-05-01T12:10:31.775Z,14.56
2017-05-01T12:11:53.624Z,14.43
2017-05-01T12:13:15.930Z,14.25
2017-05-01T12:14:37.818Z,14.14
2017-05-01T12:16:00.643Z,14.04
2017-05-01T12:17:22.572Z,13.91
2017-05-01T12:18:44.338Z,13.75
2017-05-01T12:20:06.182Z,13.56
2017-05-01T12:21:27.949Z,13.37
2017-05-01T12:22:49.891Z,13.22
2017-05-01T12:24:11.751Z,13.13
2017-05-01T12:25:33.600Z,13.07
2017-05-01T12:26:55.397Z,13.05
2017-05-01T12:28:17.241Z,13.01
2017-05-01T12:29:39.118Z,12.95
2017-05-01T12:31:01.147Z,12.93
2017-05-01T12:32:22.974Z,12.91
2017-05-01T12:33:44.822Z,12.88
2017-05-01T12:35:06.765Z,12.88
2017-05-01T12:36:28.665Z,12.86
2017-05-01T12:37:50.500Z,12.87
2017-05-01T12:39:12.300Z,12.89
2017-05-01T12:40:34.145Z,12.88
2017-05-01T12:41:55.928Z,12.77
2017-05-01T12:43:17.787Z,12.6
2017-05-01T12:44:39.602Z,12.38
2017-05-01T12:46:01.520Z,12.19
2017-05-01T12:47:23.259Z,12.03
2017-05-01T12:48:45.045Z,11.89
2017-05-01T12:50:06.848Z,11.78
2017-05-01T12:51:28.759Z,11.72
2017-05-01T12:52:50.722Z,11.66
2017-05-01T12:54:12.631Z,11.59
2017-05-01T12:55:34.482Z,11.45
2017-05-01T12:56:56.361Z,11.29
2017-05-01T12:58:18.301Z,11.14
2017-05-01T12:59:40.205Z,11.05
2017-05-01T13:01:02.081Z,10.93
2017-05-01T13:02:24.154Z,10.79
2017-05-01T13:03:46.091Z,10.62
2017-05-01T13:05:07.902Z,10.46
2017-05-01T13:06:29.716Z,10.35
2017-05-01T13:07:51.738Z,10.28
2017-05-01T13:09:13.668Z,10.18
2017-05-01T13:10:35.511Z,10.1
2017-05-01T13:11:57.396Z,10.05
2017-05-01T13:13:19.303Z,9.95
2017-05-01T13:14:41.142Z,9.92
2017-05-01T13:16:03.002Z,9.93
2017-05-01T13:17:25.861Z,9.89
2017-05-01T13:18:47.686Z,9.85
2017-05-01T13:20:09.613Z,9.76
2017-05-01T13:21:31.433Z,9.67
2017-05-01T13:22:53.343Z,9.58
2017-05-01T13:24:15.233Z,9.51
2017-05-01T13:25:37.054Z,9.4
2017-05-01T13:26:58.852Z,9.31
2017-05-01T13:28:20.696Z,9.2
2017-05-01T13:29:42.565Z,9.08
2017-05-01T13:31:04.361Z,8.98
2017-05-01T13:32:26.164Z,8.9
2017-05-01T13:33:48.082Z,8.83
2017-05-01T13:35:09.967Z,8.78
2017-05-01T13:36:31.864Z,8.74
2017-05-01T13:37:53.768Z,8.73
2017-05-01T13:39:15.546Z,8.73
2017-05-01T13:40:37.525Z,8.72
2017-05-01T13:41:59.280Z,8.72
2017-05-01T13:43:21.084Z,8.71
2017-05-01T13:44:42.987Z,8.67
2017-05-01T13:46:04.780Z,8.67
2017-05-01T13:47:26.643Z,8.66
2017-05-01T13:48:48.520Z,8.67
2017-05-01T13:50:10.398Z,8.67
2017-05-01T13:51:32.250Z,8.64
2017-05-01T13:52:54.129Z,8.63
2017-05-01T13:54:20.375Z,8.57
2017-05-01T13:55:42.251Z,8.55
2017-05-01T13:57:04.217Z,8.54
2017-05-01T13:58:26.044Z,8.51
2017-05-01T13:59:47.877Z,8.51
2017-05-01T14:01:09.676Z,8.48
2017-05-01T14:02:31.755Z,8.45
2017-05-01T14:03:53.641Z,8.4
2017-05-01T14:05:15.496Z,8.33
2017-05-01T14:06:37.414Z,8.24
2017-05-01T14:07:59.375Z,8.16
2017-05-01T14:09:21.237Z,8.05
2017-05-01T14:10:43.078Z,7.96
2017-05-01T14:12:04.983Z,7.89
2017-05-01T14:13:26.826Z,7.87
2017-05-01T14:14:49.739Z,7.89
2017-05-01T14:16:11.590Z,7.9
2017-05-01T14:17:33.397Z,7.88
2017-05-01T14:18:55.351Z,7.85
2017-05-01T14:20:17.141Z,7.79
2017-05-01T14:21:38.964Z,7.74
2017-05-01T14:23:00.915Z,7.72
2017-05-01T14:24:22.792Z,7.71
2017-05-01T14:25:45.598Z,7.73
2017-05-01T14:27:07.444Z,7.74
2017-05-01T14:28:29.308Z,7.75
2017-05-01T14:29:51.057Z,7.73
2017-05-01T14:31:12.946Z,7.7
2017-05-01T14:32:34.795Z,7.68
2017-05-01T14:33:56.649Z,7.67
2017-05-01T14:35:18.614Z,7.71
2017-05-01T14:36:40.406Z,7.77
2017-05-01T14:38:02.254Z,7.81
2017-05-01T14:39:24.139Z,7.79
2017-05-01T14:40:48.359Z,7.79
2017-05-01T14:42:10.223Z,7.76
2017-05-01T14:43:32.069Z,7.81
2017-05-01T14:44:55.904Z,7.89
2017-05-01T14:46:21.214Z,7.88
2017-05-01T14:47:44.059Z,7.88
2017-05-01T14:49:05.945Z,7.96
2017-05-01T14:50:27.873Z,7.9
2017-05-01T14:51:49.745Z,7.85
2017-05-01T14:53:11.612Z,7.83
2017-05-01T14:54:33.520Z,7.81
2017-05-01T14:55:55.479Z,7.82
2017-05-01T14:57:17.406Z,7.91
2017-05-01T14:58:39.400Z,7.92
2017-05-01T15:00:01.238Z,7.95
2017-05-01T15:01:23.026Z,7.98
2017-05-01T15:02:44.924Z,8.03
2017-05-01T15:04:06.766Z,8.04
2017-05-01T15:05:28.620Z,8.04
2017-05-01T15:06:50.483Z,8.07
2017-05-01T15:08:12.542Z,8.09
2017-05-01T15:09:34.554Z,8.06
2017-05-01T15:10:56.381Z,8.01
2017-05-01T15:12:18.150Z,7.89
2017-05-01T15:13:41.375Z,7.84
2017-05-01T15:15:03.291Z,7.78
2017-05-01T15:16:25.154Z,7.76
2017-05-01T15:17:47.088Z,7.74
2017-05-01T15:19:09.181Z,7.72
2017-05-01T15:20:31.138Z,7.69
2017-05-01T15:21:53.121Z,7.69
2017-05-01T15:23:15.623Z,7.71
2017-05-01T15:24:37.571Z,7.75
2017-05-01T15:27:09.601Z,7.74
2017-05-01T15:28:32.525Z,7.7
2017-05-01T15:29:54.354Z,7.69
2017-05-01T15:31:16.243Z,7.7
2017-05-01T15:32:38.050Z,7.73
2017-05-01T15:33:59.991Z,7.77
2017-05-01T15:35:21.880Z,7.78
2017-05-01T15:36:43.695Z,7.8
2017-05-01T15:38:05.473Z,7.81
2017-05-01T15:39:27.314Z,7.77
2017-05-01T15:40:50.237Z,7.8
2017-05-01T15:42:12.163Z,7.81
2017-05-01T15:43:34.066Z,7.78
2017-05-01T15:44:55.862Z,7.74
2017-05-01T15:46:18.700Z,7.72
2017-05-01T15:47:40.527Z,7.71
2017-05-01T15:49:02.422Z,7.7
2017-05-01T15:50:25.301Z,7.67
2017-05-01T15:51:47.162Z,7.65
2017-05-01T15:53:09.214Z,7.62
2017-05-01T15:54:32.229Z,7.56
2017-05-01T15:55:54.240Z,7.54
2017-05-01T15:57:17.119Z,7.55
2017-05-01T15:58:39.053Z,7.59
2017-05-01T16:00:01.153Z,7.65
2017-05-01T16:01:24.550Z,7.68
2017-05-01T16:02:46.660Z,7.74
2017-05-01T16:04:09.592Z,7.8
2017-05-01T16:05:31.475Z,7.79
2017-05-01T16:06:53.435Z,7.74
2017-05-01T16:08:15.363Z,7.62
2017-05-01T16:09:37.264Z,7.58
2017-05-01T16:10:59.157Z,7.54
2017-05-01T16:12:21.033Z,7.48
2017-05-01T16:13:42.940Z,7.46
2017-05-01T16:15:04.891Z,7.42
2017-05-01T16:16:27.760Z,7.39
2017-05-01T16:17:49.587Z,7.32
2017-05-01T16:19:11.440Z,7.25
2017-05-01T16:20:33.246Z,7.2
2017-05-01T16:21:55.097Z,7.16
2017-05-01T16:23:16.866Z,7.15
2017-05-01T16:24:40.778Z,7.14
2017-05-01T16:26:02.639Z,7.12
2017-05-01T16:27:27.793Z,7.11
2017-05-01T16:28:49.646Z,7.07
2017-05-01T16:30:11.572Z,7.08
2017-05-01T16:31:33.503Z,7.08
2017-05-01T16:32:55.488Z,7.07
2017-05-01T16:34:17.345Z,7.05
2017-05-01T16:35:39.148Z,7.04
2017-05-01T16:37:00.905Z,7.04
2017-05-01T16:38:22.677Z,7.05
2017-05-01T16:39:44.619Z,7.06
2017-05-01T16:41:07.607Z,7.06
2017-05-01T16:42:29.438Z,7.04
2017-05-01T16:43:53.247Z,7.03
2017-05-01T16:45:15.176Z,7.03
2017-05-01T16:46:37.144Z,7.02
2017-05-01T16:48:00.053Z,7
2017-05-01T16:49:21.996Z,7.01
2017-05-01T16:50:44.030Z,7.01
2017-05-01T16:52:06.031Z,7.01
2017-05-01T16:53:27.913Z,7.01
2017-05-01T16:54:49.742Z,6.98
2017-05-01T16:56:11.533Z,6.96
2017-05-01T16:57:33.391Z,6.94
2017-05-01T16:58:55.176Z,6.93
2017-05-01T17:00:16.962Z,6.91
2017-05-01T17:01:38.837Z,6.89
2017-05-01T17:03:00.742Z,6.88
2017-05-01T17:04:23.614Z,6.85
2017-05-01T17:05:46.490Z,6.83
2017-05-01T17:07:08.370Z,6.84
2017-05-01T17:08:30.416Z,6.85
2017-05-01T17:09:52.187Z,6.84
2017-05-01T17:11:14.032Z,6.83
2017-05-01T17:12:36.018Z,6.82
2017-05-01T17:14:02.045Z,6.8
2017-05-01T17:16:33.552Z,6.74
2017-05-01T17:18:05.182Z,6.73
2017-05-01T17:19:30.644Z,6.72
2017-05-01T17:20:53.608Z,6.7
2017-05-01T17:22:15.592Z,6.68
2017-05-01T17:23:37.419Z,6.67
2017-05-01T17:25:01.094Z,6.67
2017-05-01T17:26:27.424Z,6.65
2017-05-01T17:27:49.535Z,6.62
2017-05-01T17:29:15.248Z,6.6
2017-05-01T17:30:38.064Z,6.57
2017-05-01T17:32:00.289Z,6.53
2017-05-01T17:33:22.812Z,6.51
2017-05-01T17:34:45.874Z,6.5
2017-05-01T17:36:09.830Z,6.49
2017-05-01T17:37:32.680Z,6.49
2017-05-01T17:38:54.404Z,6.48
2017-05-01T17:40:16.358Z,6.47
2017-05-01T17:41:38.212Z,6.46
2017-05-01T17:43:00.098Z,6.46
2017-05-01T17:44:21.887Z,6.46
2017-05-01T17:45:43.813Z,6.44
2017-05-01T17:47:06.912Z,6.43
2017-05-01T17:48:28.915Z,6.42
2017-05-01T17:49:51.784Z,6.39
2017-05-01T17:51:13.742Z,6.36
2017-05-01T17:52:35.676Z,6.34
2017-05-01T17:53:57.627Z,6.32
2017-05-01T17:55:19.520Z,6.31
2017-05-01T17:56:41.480Z,6.3
2017-05-01T17:58:03.433Z,6.29
2017-05-01T17:59:25.423Z,6.27
2017-05-01T18:00:47.272Z,6.26
2017-05-01T18:02:13.158Z,6.26
2017-05-01T18:03:35.152Z,6.24
2017-05-01T18:04:57.595Z,6.23
2017-05-01T18:06:20.542Z,6.2
2017-05-01T18:07:42.533Z,6.18
2017-05-01T18:09:06.506Z,6.17
2017-05-01T18:10:30.473Z,6.15
2017-05-01T18:11:53.457Z,6.14
2017-05-01T18:13:16.475Z,6.12
2017-05-01T18:14:38.636Z,6.1
2017-05-01T18:16:02.731Z,6.09
2017-05-01T18:17:24.494Z,6.07
2017-05-01T18:18:47.362Z,6.07
2017-05-01T18:20:09.471Z,6.06
2017-05-01T18:21:31.378Z,6.06
2017-05-01T18:22:53.483Z,6.05
2017-05-01T18:24:16.328Z,6.04
2017-05-01T18:25:38.227Z,6.03
2017-05-01T18:27:00.138Z,6.02
2017-05-01T18:28:21.933Z,6.02
2017-05-01T18:29:43.809Z,6.01
2017-05-01T18:31:05.927Z,6.01
2017-05-01T18:32:27.807Z,5.99
2017-05-01T18:33:50.841Z,5.98
2017-05-01T18:35:13.057Z,5.99
2017-05-01T18:36:34.954Z,5.98
2017-05-01T18:37:56.883Z,5.96
2017-05-01T18:39:19.244Z,5.96
2017-05-01T18:40:42.171Z,5.95
2017-05-01T18:42:04.161Z,5.94
2017-05-01T18:43:26.336Z,5.94
2017-05-01T18:44:48.808Z,5.93
2017-05-01T18:46:12.122Z,5.93
2017-05-01T18:47:34.436Z,5.92
2017-05-01T18:48:56.335Z,5.91
2017-05-01T18:50:18.245Z,5.91
2017-05-01T18:51:40.148Z,5.89
2017-05-01T18:53:02.107Z,5.88
2017-05-01T18:54:24.333Z,5.87
2017-05-01T18:55:46.330Z,5.86
2017-05-01T18:57:08.620Z,5.85
2017-05-01T18:58:31.667Z,5.85
2017-05-01T18:59:54.322Z,5.84
2017-05-01T19:01:16.227Z,5.83